sensor_id;sensor_type;location;lat;lon;timestamp;temperature;humidity
23633;DHT22;11993;48.748;9.166;2023-07-08T00:00:22;22.30;37.70
23633;DHT22;11993;48.748;9.166;2023-07-08T00:02:48;22.30;37.70
23633;DHT22;11993;48.748;9.166;2023-07-08T00:05:16;22.30;37.80
23633;DHT22;11993;48.748;9.166;2023-07-08T00:07:42;22.30;37.70
23633;DHT22;11993;48.748;9.166;2023-07-08T00:12:41;22.20;37.90
23633;DHT22;11993;48.748;9.166;2023-07-08T00:15:07;22.30;37.80
23633;DHT22;11993;48.748;9.166;2023-07-08T00:17:32;22.20;37.80
23633;DHT22;11993;48.748;9.166;2023-07-08T00:19:58;22.20;37.90
23633;DHT22;11993;48.748;9.166;2023-07-08T00:22:23;22.10;38.00
23633;DHT22;11993;48.748;9.166;2023-07-08T00:24:50;22.20;38.00
23633;DHT22;11993;48.748;9.166;2023-07-08T00:27:16;22.10;37.90
23633;DHT22;11993;48.748;9.166;2023-07-08T00:29:42;22.20;37.80
23633;DHT22;11993;48.748;9.166;2023-07-08T00:32:14;22.20;38.00
23633;DHT22;11993;48.748;9.166;2023-07-08T00:34:40;22.10;38.00
23633;DHT22;11993;48.748;9.166;2023-07-08T00:37:10;22.10;38.00
23633;DHT22;11993;48.748;9.166;2023-07-08T00:39:36;22.10;37.90
23633;DHT22;11993;48.748;9.166;2023-07-08T00:42:10;22.10;37.90
23633;DHT22;11993;48.748;9.166;2023-07-08T00:44:39;22.10;37.90
23633;DHT22;11993;48.748;9.166;2023-07-08T00:47:09;22.10;38.10
23633;DHT22;11993;48.748;9.166;2023-07-08T00:49:52;22.10;38.10
23633;DHT22;11993;48.748;9.166;2023-07-08T00:52:24;22.00;38.30
23633;DHT22;11993;48.748;9.166;2023-07-08T00:54:55;21.90;38.60
23633;DHT22;11993;48.748;9.166;2023-07-08T00:57:25;21.80;38.90
23633;DHT22;11993;48.748;9.166;2023-07-08T01:00:15;21.70;39.10
23633;DHT22;11993;48.748;9.166;2023-07-08T01:02:47;21.70;39.20
23633;DHT22;11993;48.748;9.166;2023-07-08T01:05:17;21.70;39.20
23633;DHT22;11993;48.748;9.166;2023-07-08T01:07:53;21.60;39.50
23633;DHT22;11993;48.748;9.166;2023-07-08T01:10:27;21.60;39.40
23633;DHT22;11993;48.748;9.166;2023-07-08T01:12:56;21.60;39.20
23633;DHT22;11993;48.748;9.166;2023-07-08T01:15:26;21.60;39.10
23633;DHT22;11993;48.748;9.166;2023-07-08T01:17:54;21.60;39.10
23633;DHT22;11993;48.748;9.166;2023-07-08T01:20:20;21.60;39.00
23633;DHT22;11993;48.748;9.166;2023-07-08T01:22:45;21.60;38.70
23633;DHT22;11993;48.748;9.166;2023-07-08T01:25:12;21.60;38.70
23633;DHT22;11993;48.748;9.166;2023-07-08T01:27:44;21.60;38.80
23633;DHT22;11993;48.748;9.166;2023-07-08T01:30:11;21.70;38.50
23633;DHT22;11993;48.748;9.166;2023-07-08T01:32:40;21.60;38.70
23633;DHT22;11993;48.748;9.166;2023-07-08T01:35:09;21.60;38.60
23633;DHT22;11993;48.748;9.166;2023-07-08T01:37:43;21.60;38.60
23633;DHT22;11993;48.748;9.166;2023-07-08T01:40:30;21.70;38.50
23633;DHT22;11993;48.748;9.166;2023-07-08T01:42:57;21.60;38.60
23633;DHT22;11993;48.748;9.166;2023-07-08T01:45:26;21.60;38.70
23633;DHT22;11993;48.748;9.166;2023-07-08T01:48:25;21.60;38.90
23633;DHT22;11993;48.748;9.166;2023-07-08T01:50:57;21.50;39.00
23633;DHT22;11993;48.748;9.166;2023-07-08T01:53:43;21.50;39.00
23633;DHT22;11993;48.748;9.166;2023-07-08T01:56:12;21.50;39.10
23633;DHT22;11993;48.748;9.166;2023-07-08T01:58:38;21.50;38.80
23633;DHT22;11993;48.748;9.166;2023-07-08T02:01:04;21.40;39.10
23633;DHT22;11993;48.748;9.166;2023-07-08T02:03:30;21.40;39.20
23633;DHT22;11993;48.748;9.166;2023-07-08T02:05:56;21.40;39.30
23633;DHT22;11993;48.748;9.166;2023-07-08T02:08:22;21.30;39.50
23633;DHT22;11993;48.748;9.166;2023-07-08T02:10:53;21.30;39.60
23633;DHT22;11993;48.748;9.166;2023-07-08T02:13:20;21.30;39.70
23633;DHT22;11993;48.748;9.166;2023-07-08T02:15:46;21.30;39.70
23633;DHT22;11993;48.748;9.166;2023-07-08T02:18:12;21.10;39.90
23633;DHT22;11993;48.748;9.166;2023-07-08T02:20:38;21.20;40.00
23633;DHT22;11993;48.748;9.166;2023-07-08T02:23:04;21.10;40.10
23633;DHT22;11993;48.748;9.166;2023-07-08T02:25:29;21.10;40.40
23633;DHT22;11993;48.748;9.166;2023-07-08T02:27:55;21.10;40.50
23633;DHT22;11993;48.748;9.166;2023-07-08T02:30:23;21.10;40.70
23633;DHT22;11993;48.748;9.166;2023-07-08T02:32:48;21.00;40.60
23633;DHT22;11993;48.748;9.166;2023-07-08T02:35:26;21.00;40.70
23633;DHT22;11993;48.748;9.166;2023-07-08T02:37:52;20.90;40.70
23633;DHT22;11993;48.748;9.166;2023-07-08T02:40:19;21.00;40.50
23633;DHT22;11993;48.748;9.166;2023-07-08T02:42:44;20.90;40.70
23633;DHT22;11993;48.748;9.166;2023-07-08T02:45:11;21.00;40.50
23633;DHT22;11993;48.748;9.166;2023-07-08T02:47:37;21.00;40.50
23633;DHT22;11993;48.748;9.166;2023-07-08T02:50:03;20.90;40.80
23633;DHT22;11993;48.748;9.166;2023-07-08T02:52:29;20.90;40.90
23633;DHT22;11993;48.748;9.166;2023-07-08T02:54:55;20.90;40.90
23633;DHT22;11993;48.748;9.166;2023-07-08T02:57:21;21.00;41.10
23633;DHT22;11993;48.748;9.166;2023-07-08T02:59:46;20.90;41.10
23633;DHT22;11993;48.748;9.166;2023-07-08T03:02:12;20.90;41.30
23633;DHT22;11993;48.748;9.166;2023-07-08T03:04:37;20.80;41.60
23633;DHT22;11993;48.748;9.166;2023-07-08T03:07:06;20.80;41.80
23633;DHT22;11993;48.748;9.166;2023-07-08T03:09:31;20.60;42.60
23633;DHT22;11993;48.748;9.166;2023-07-08T03:11:58;20.60;43.00
23633;DHT22;11993;48.748;9.166;2023-07-08T03:14:24;20.40;43.50
23633;DHT22;11993;48.748;9.166;2023-07-08T03:16:49;20.40;43.40
23633;DHT22;11993;48.748;9.166;2023-07-08T03:19:15;20.30;44.00
23633;DHT22;11993;48.748;9.166;2023-07-08T03:21:42;20.40;43.90
23633;DHT22;11993;48.748;9.166;2023-07-08T03:24:11;20.40;43.60
23633;DHT22;11993;48.748;9.166;2023-07-08T03:26:37;20.40;43.50
23633;DHT22;11993;48.748;9.166;2023-07-08T03:29:04;20.50;43.50
23633;DHT22;11993;48.748;9.166;2023-07-08T03:31:29;20.50;43.60
23633;DHT22;11993;48.748;9.166;2023-07-08T03:33:55;20.50;43.50
23633;DHT22;11993;48.748;9.166;2023-07-08T03:36:20;20.50;43.30
23633;DHT22;11993;48.748;9.166;2023-07-08T03:38:55;20.60;43.20
23633;DHT22;11993;48.748;9.166;2023-07-08T03:41:21;20.60;43.20
23633;DHT22;11993;48.748;9.166;2023-07-08T03:43:47;20.60;43.00
23633;DHT22;11993;48.748;9.166;2023-07-08T03:46:15;20.60;43.00
23633;DHT22;11993;48.748;9.166;2023-07-08T03:48:40;20.60;43.10
23633;DHT22;11993;48.748;9.166;2023-07-08T03:51:20;20.60;43.20
23633;DHT22;11993;48.748;9.166;2023-07-08T03:53:46;20.70;43.30
23633;DHT22;11993;48.748;9.166;2023-07-08T03:56:12;20.70;43.20
23633;DHT22;11993;48.748;9.166;2023-07-08T03:58:38;20.80;42.90
23633;DHT22;11993;48.748;9.166;2023-07-08T04:01:04;20.80;43.00
23633;DHT22;11993;48.748;9.166;2023-07-08T04:03:30;20.90;43.00
23633;DHT22;11993;48.748;9.166;2023-07-08T04:05:56;20.80;43.10
23633;DHT22;11993;48.748;9.166;2023-07-08T04:08:21;20.80;43.30
23633;DHT22;11993;48.748;9.166;2023-07-08T04:10:47;20.80;43.30
23633;DHT22;11993;48.748;9.166;2023-07-08T04:13:12;20.80;43.50
23633;DHT22;11993;48.748;9.166;2023-07-08T04:15:38;20.90;43.30
23633;DHT22;11993;48.748;9.166;2023-07-08T04:18:03;20.90;43.40
23633;DHT22;11993;48.748;9.166;2023-07-08T04:20:29;21.00;43.30
23633;DHT22;11993;48.748;9.166;2023-07-08T04:22:55;21.10;43.20
23633;DHT22;11993;48.748;9.166;2023-07-08T04:25:21;21.30;43.00
23633;DHT22;11993;48.748;9.166;2023-07-08T04:27:47;21.40;42.90
23633;DHT22;11993;48.748;9.166;2023-07-08T04:30:31;21.40;42.90
23633;DHT22;11993;48.748;9.166;2023-07-08T04:32:57;21.50;42.70
23633;DHT22;11993;48.748;9.166;2023-07-08T04:35:22;21.60;42.60
23633;DHT22;11993;48.748;9.166;2023-07-08T04:37:48;21.70;42.40
23633;DHT22;11993;48.748;9.166;2023-07-08T04:40:18;21.70;42.50
23633;DHT22;11993;48.748;9.166;2023-07-08T04:42:44;21.80;42.60
23633;DHT22;11993;48.748;9.166;2023-07-08T04:45:13;21.70;42.70
23633;DHT22;11993;48.748;9.166;2023-07-08T04:47:39;21.70;42.60
23633;DHT22;11993;48.748;9.166;2023-07-08T04:50:05;21.80;42.50
23633;DHT22;11993;48.748;9.166;2023-07-08T04:52:31;21.70;42.50
23633;DHT22;11993;48.748;9.166;2023-07-08T04:54:56;21.80;43.20
23633;DHT22;11993;48.748;9.166;2023-07-08T04:57:22;21.80;43.40
23633;DHT22;11993;48.748;9.166;2023-07-08T04:59:47;21.70;44.10
23633;DHT22;11993;48.748;9.166;2023-07-08T05:02:13;21.60;45.00
23633;DHT22;11993;48.748;9.166;2023-07-08T05:04:39;21.60;44.80
23633;DHT22;11993;48.748;9.166;2023-07-08T05:07:05;21.60;44.70
23633;DHT22;11993;48.748;9.166;2023-07-08T05:09:30;21.60;44.40
23633;DHT22;11993;48.748;9.166;2023-07-08T05:11:57;21.50;44.80
23633;DHT22;11993;48.748;9.166;2023-07-08T05:14:22;21.60;44.60
23633;DHT22;11993;48.748;9.166;2023-07-08T05:16:48;21.80;44.50
23633;DHT22;11993;48.748;9.166;2023-07-08T05:19:14;21.90;44.70
23633;DHT22;11993;48.748;9.166;2023-07-08T05:21:39;22.00;44.50
23633;DHT22;11993;48.748;9.166;2023-07-08T05:24:05;21.80;45.10
23633;DHT22;11993;48.748;9.166;2023-07-08T05:26:32;22.10;44.80
23633;DHT22;11993;48.748;9.166;2023-07-08T05:28:58;22.30;44.30
23633;DHT22;11993;48.748;9.166;2023-07-08T05:31:24;22.20;44.80
23633;DHT22;11993;48.748;9.166;2023-07-08T05:33:50;22.20;45.00
23633;DHT22;11993;48.748;9.166;2023-07-08T05:36:16;22.30;45.30
23633;DHT22;11993;48.748;9.166;2023-07-08T05:38:41;22.10;45.70
23633;DHT22;11993;48.748;9.166;2023-07-08T05:41:07;22.10;45.90
23633;DHT22;11993;48.748;9.166;2023-07-08T05:43:32;22.10;45.90
23633;DHT22;11993;48.748;9.166;2023-07-08T05:46:01;22.10;45.20
23633;DHT22;11993;48.748;9.166;2023-07-08T05:48:27;22.20;45.30
23633;DHT22;11993;48.748;9.166;2023-07-08T05:50:53;22.30;44.50
23633;DHT22;11993;48.748;9.166;2023-07-08T05:53:19;22.40;44.70
23633;DHT22;11993;48.748;9.166;2023-07-08T05:55:45;22.60;44.00
23633;DHT22;11993;48.748;9.166;2023-07-08T05:58:11;22.50;44.20
23633;DHT22;11993;48.748;9.166;2023-07-08T06:00:41;22.50;44.30
23633;DHT22;11993;48.748;9.166;2023-07-08T06:03:07;22.50;44.20
23633;DHT22;11993;48.748;9.166;2023-07-08T06:05:32;22.40;44.40
23633;DHT22;11993;48.748;9.166;2023-07-08T06:07:58;22.50;44.30
23633;DHT22;11993;48.748;9.166;2023-07-08T06:10:24;22.40;44.20
23633;DHT22;11993;48.748;9.166;2023-07-08T06:12:50;22.50;44.10
23633;DHT22;11993;48.748;9.166;2023-07-08T06:15:16;22.50;44.10
23633;DHT22;11993;48.748;9.166;2023-07-08T06:17:41;22.60;44.30
23633;DHT22;11993;48.748;9.166;2023-07-08T06:20:07;22.90;43.60
23633;DHT22;11993;48.748;9.166;2023-07-08T06:22:33;23.10;43.20
23633;DHT22;11993;48.748;9.166;2023-07-08T06:24:58;23.10;43.50
23633;DHT22;11993;48.748;9.166;2023-07-08T06:27:24;23.20;43.10
23633;DHT22;11993;48.748;9.166;2023-07-08T06:29:50;23.60;42.50
23633;DHT22;11993;48.748;9.166;2023-07-08T06:32:15;23.60;42.20
23633;DHT22;11993;48.748;9.166;2023-07-08T06:34:41;23.50;42.90
23633;DHT22;11993;48.748;9.166;2023-07-08T06:37:07;23.60;42.90
23633;DHT22;11993;48.748;9.166;2023-07-08T06:39:32;23.70;42.60
23633;DHT22;11993;48.748;9.166;2023-07-08T06:41:58;23.80;42.50
23633;DHT22;11993;48.748;9.166;2023-07-08T06:44:23;23.80;42.90
23633;DHT22;11993;48.748;9.166;2023-07-08T06:46:51;23.70;43.20
23633;DHT22;11993;48.748;9.166;2023-07-08T06:49:16;24.00;43.20
23633;DHT22;11993;48.748;9.166;2023-07-08T06:51:42;24.20;43.10
23633;DHT22;11993;48.748;9.166;2023-07-08T06:54:11;24.50;42.60
23633;DHT22;11993;48.748;9.166;2023-07-08T06:56:40;24.80;42.10
23633;DHT22;11993;48.748;9.166;2023-07-08T06:59:09;24.80;41.90
23633;DHT22;11993;48.748;9.166;2023-07-08T07:01:35;24.70;42.40
23633;DHT22;11993;48.748;9.166;2023-07-08T07:04:02;24.60;43.10
23633;DHT22;11993;48.748;9.166;2023-07-08T07:06:29;24.60;43.60
23633;DHT22;11993;48.748;9.166;2023-07-08T07:08:54;24.30;44.10
23633;DHT22;11993;48.748;9.166;2023-07-08T07:11:20;24.30;44.60
23633;DHT22;11993;48.748;9.166;2023-07-08T07:13:46;24.40;44.50
23633;DHT22;11993;48.748;9.166;2023-07-08T07:16:15;24.40;44.20
23633;DHT22;11993;48.748;9.166;2023-07-08T07:18:43;24.50;44.60
23633;DHT22;11993;48.748;9.166;2023-07-08T07:21:10;24.50;44.80
23633;DHT22;11993;48.748;9.166;2023-07-08T07:23:35;24.50;44.50
23633;DHT22;11993;48.748;9.166;2023-07-08T07:26:01;24.60;44.50
23633;DHT22;11993;48.748;9.166;2023-07-08T07:28:28;24.60;44.70
23633;DHT22;11993;48.748;9.166;2023-07-08T07:30:59;24.60;45.00
23633;DHT22;11993;48.748;9.166;2023-07-08T07:33:26;24.60;45.00
23633;DHT22;11993;48.748;9.166;2023-07-08T07:35:51;24.60;44.90
23633;DHT22;11993;48.748;9.166;2023-07-08T07:38:17;24.70;45.20
23633;DHT22;11993;48.748;9.166;2023-07-08T07:40:43;24.80;45.20
23633;DHT22;11993;48.748;9.166;2023-07-08T07:43:09;24.90;45.30
23633;DHT22;11993;48.748;9.166;2023-07-08T07:45:35;24.80;45.10
23633;DHT22;11993;48.748;9.166;2023-07-08T07:48:00;25.00;45.10
23633;DHT22;11993;48.748;9.166;2023-07-08T07:50:26;25.00;45.10
23633;DHT22;11993;48.748;9.166;2023-07-08T07:52:52;25.00;45.40
23633;DHT22;11993;48.748;9.166;2023-07-08T07:55:18;25.00;45.10
23633;DHT22;11993;48.748;9.166;2023-07-08T07:57:43;25.10;44.90
23633;DHT22;11993;48.748;9.166;2023-07-08T08:00:11;25.60;44.30
23633;DHT22;11993;48.748;9.166;2023-07-08T08:02:37;26.10;43.60
23633;DHT22;11993;48.748;9.166;2023-07-08T08:05:03;26.60;43.20
23633;DHT22;11993;48.748;9.166;2023-07-08T08:07:28;27.10;42.40
23633;DHT22;11993;48.748;9.166;2023-07-08T08:09:54;27.10;41.90
23633;DHT22;11993;48.748;9.166;2023-07-08T08:12:20;27.20;41.20
23633;DHT22;11993;48.748;9.166;2023-07-08T08:14:47;27.10;41.30
23633;DHT22;11993;48.748;9.166;2023-07-08T08:17:13;27.20;41.30
23633;DHT22;11993;48.748;9.166;2023-07-08T08:19:38;27.50;41.20
23633;DHT22;11993;48.748;9.166;2023-07-08T08:22:04;27.40;40.80
23633;DHT22;11993;48.748;9.166;2023-07-08T08:24:29;27.30;40.50
23633;DHT22;11993;48.748;9.166;2023-07-08T08:26:55;27.00;41.20
23633;DHT22;11993;48.748;9.166;2023-07-08T08:29:21;27.00;41.10
23633;DHT22;11993;48.748;9.166;2023-07-08T08:31:46;27.00;41.30
23633;DHT22;11993;48.748;9.166;2023-07-08T08:34:12;27.10;41.00
23633;DHT22;11993;48.748;9.166;2023-07-08T08:36:37;27.30;39.50
23633;DHT22;11993;48.748;9.166;2023-07-08T08:39:03;27.60;40.00
23633;DHT22;11993;48.748;9.166;2023-07-08T08:41:33;27.10;40.60
23633;DHT22;11993;48.748;9.166;2023-07-08T08:44:00;27.10;40.60
23633;DHT22;11993;48.748;9.166;2023-07-08T08:46:34;27.50;40.50
23633;DHT22;11993;48.748;9.166;2023-07-08T08:51:45;27.60;39.30
23633;DHT22;11993;48.748;9.166;2023-07-08T08:54:11;27.40;40.00
23633;DHT22;11993;48.748;9.166;2023-07-08T09:01:55;27.40;40.30
23633;DHT22;11993;48.748;9.166;2023-07-08T09:04:27;27.20;40.60
23633;DHT22;11993;48.748;9.166;2023-07-08T09:07:00;27.50;40.60
23633;DHT22;11993;48.748;9.166;2023-07-08T09:09:32;28.10;39.30
23633;DHT22;11993;48.748;9.166;2023-07-08T09:12:05;28.60;38.40
23633;DHT22;11993;48.748;9.166;2023-07-08T09:14:34;28.90;38.10
23633;DHT22;11993;48.748;9.166;2023-07-08T09:17:26;29.20;36.90
23633;DHT22;11993;48.748;9.166;2023-07-08T09:20:21;28.30;37.60
23633;DHT22;11993;48.748;9.166;2023-07-08T09:23:03;28.60;37.40
23633;DHT22;11993;48.748;9.166;2023-07-08T09:25:40;27.90;38.60
23633;DHT22;11993;48.748;9.166;2023-07-08T09:28:08;28.00;38.40
23633;DHT22;11993;48.748;9.166;2023-07-08T09:30:34;28.00;38.50
23633;DHT22;11993;48.748;9.166;2023-07-08T09:33:03;28.40;38.10
23633;DHT22;11993;48.748;9.166;2023-07-08T09:35:42;27.90;37.80
23633;DHT22;11993;48.748;9.166;2023-07-08T09:38:12;28.30;37.20
23633;DHT22;11993;48.748;9.166;2023-07-08T09:40:38;28.60;36.90
23633;DHT22;11993;48.748;9.166;2023-07-08T09:45:48;28.20;37.80
23633;DHT22;11993;48.748;9.166;2023-07-08T09:48:21;28.60;36.90
23633;DHT22;11993;48.748;9.166;2023-07-08T09:50:49;29.00;35.90
23633;DHT22;11993;48.748;9.166;2023-07-08T09:53:16;29.10;35.80
23633;DHT22;11993;48.748;9.166;2023-07-08T09:55:42;29.10;36.00
23633;DHT22;11993;48.748;9.166;2023-07-08T09:58:11;29.40;35.60
23633;DHT22;11993;48.748;9.166;2023-07-08T10:00:40;30.00;34.80
23633;DHT22;11993;48.748;9.166;2023-07-08T10:03:19;29.50;35.70
23633;DHT22;11993;48.748;9.166;2023-07-08T10:05:47;28.80;37.00
23633;DHT22;11993;48.748;9.166;2023-07-08T10:08:19;27.80;38.60
23633;DHT22;11993;48.748;9.166;2023-07-08T10:10:47;27.70;38.70
23633;DHT22;11993;48.748;9.166;2023-07-08T10:13:22;27.60;38.90
23633;DHT22;11993;48.748;9.166;2023-07-08T10:15:55;27.50;39.50
23633;DHT22;11993;48.748;9.166;2023-07-08T10:18:27;27.40;40.50
23633;DHT22;11993;48.748;9.166;2023-07-08T10:23:43;26.80;41.90
23633;DHT22;11993;48.748;9.166;2023-07-08T10:26:26;26.60;42.50
23633;DHT22;11993;48.748;9.166;2023-07-08T10:29:18;26.70;42.30
23633;DHT22;11993;48.748;9.166;2023-07-08T10:32:07;27.20;41.30
23633;DHT22;11993;48.748;9.166;2023-07-08T10:34:49;27.10;41.90
23633;DHT22;11993;48.748;9.166;2023-07-08T10:37:36;27.40;41.20
23633;DHT22;11993;48.748;9.166;2023-07-08T10:43:14;28.30;39.10
23633;DHT22;11993;48.748;9.166;2023-07-08T10:45:57;28.90;38.30
23633;DHT22;11993;48.748;9.166;2023-07-08T10:48:56;28.80;38.00
23633;DHT22;11993;48.748;9.166;2023-07-08T10:51:35;29.20;37.30
23633;DHT22;11993;48.748;9.166;2023-07-08T10:54:22;29.20;36.60
23633;DHT22;11993;48.748;9.166;2023-07-08T10:59:57;29.50;36.80
23633;DHT22;11993;48.748;9.166;2023-07-08T11:05:28;28.50;38.00
23633;DHT22;11993;48.748;9.166;2023-07-08T11:08:01;28.70;38.00
23633;DHT22;11993;48.748;9.166;2023-07-08T11:10:34;28.90;37.30
23633;DHT22;11993;48.748;9.166;2023-07-08T11:13:05;28.50;37.90
23633;DHT22;11993;48.748;9.166;2023-07-08T11:15:36;28.40;38.10
23633;DHT22;11993;48.748;9.166;2023-07-08T11:18:12;28.30;38.30
23633;DHT22;11993;48.748;9.166;2023-07-08T11:21:09;28.20;38.50
23633;DHT22;11993;48.748;9.166;2023-07-08T11:23:46;28.10;38.70
23633;DHT22;11993;48.748;9.166;2023-07-08T11:26:29;28.30;38.40
23633;DHT22;11993;48.748;9.166;2023-07-08T11:28:57;28.80;37.80
23633;DHT22;11993;48.748;9.166;2023-07-08T11:31:25;28.80;37.90
23633;DHT22;11993;48.748;9.166;2023-07-08T11:33:52;28.90;37.60
23633;DHT22;11993;48.748;9.166;2023-07-08T11:36:19;29.80;36.80
23633;DHT22;11993;48.748;9.166;2023-07-08T11:44:34;30.50;35.50
23633;DHT22;11993;48.748;9.166;2023-07-08T11:47:00;30.50;35.40
23633;DHT22;11993;48.748;9.166;2023-07-08T11:49:26;30.60;35.60
23633;DHT22;11993;48.748;9.166;2023-07-08T11:51:52;30.60;35.30
23633;DHT22;11993;48.748;9.166;2023-07-08T11:54:27;30.60;35.00
23633;DHT22;11993;48.748;9.166;2023-07-08T11:59:25;30.40;35.40
23633;DHT22;11993;48.748;9.166;2023-07-08T12:04:27;31.10;34.50
23633;DHT22;11993;48.748;9.166;2023-07-08T12:07:16;31.30;33.80
23633;DHT22;11993;48.748;9.166;2023-07-08T12:12:31;31.00;34.50
23633;DHT22;11993;48.748;9.166;2023-07-08T12:15:05;31.10;33.90
23633;DHT22;11993;48.748;9.166;2023-07-08T12:17:34;31.50;33.30
23633;DHT22;11993;48.748;9.166;2023-07-08T12:20:02;31.80;33.10
23633;DHT22;11993;48.748;9.166;2023-07-08T12:22:29;31.20;33.40
23633;DHT22;11993;48.748;9.166;2023-07-08T12:24:55;31.10;34.00
23633;DHT22;11993;48.748;9.166;2023-07-08T12:27:21;32.10;33.20
23633;DHT22;11993;48.748;9.166;2023-07-08T12:29:47;32.20;31.90
23633;DHT22;11993;48.748;9.166;2023-07-08T12:32:12;32.20;31.90
23633;DHT22;11993;48.748;9.166;2023-07-08T12:34:39;32.40;32.00
23633;DHT22;11993;48.748;9.166;2023-07-08T12:37:10;32.80;31.60
23633;DHT22;11993;48.748;9.166;2023-07-08T12:39:37;32.60;31.60
23633;DHT22;11993;48.748;9.166;2023-07-08T12:42:09;32.80;31.20
23633;DHT22;11993;48.748;9.166;2023-07-08T12:44:36;32.80;30.90
23633;DHT22;11993;48.748;9.166;2023-07-08T12:47:04;32.20;31.60
23633;DHT22;11993;48.748;9.166;2023-07-08T12:49:30;32.50;31.80
23633;DHT22;11993;48.748;9.166;2023-07-08T12:51:56;32.20;32.10
23633;DHT22;11993;48.748;9.166;2023-07-08T12:54:21;32.20;32.10
23633;DHT22;11993;48.748;9.166;2023-07-08T12:56:47;32.10;32.20
23633;DHT22;11993;48.748;9.166;2023-07-08T12:59:18;32.50;31.80
23633;DHT22;11993;48.748;9.166;2023-07-08T13:01:46;33.00;31.30
23633;DHT22;11993;48.748;9.166;2023-07-08T13:04:13;32.20;31.10
23633;DHT22;11993;48.748;9.166;2023-07-08T13:06:40;32.20;31.50
23633;DHT22;11993;48.748;9.166;2023-07-08T13:09:30;32.30;31.50
23633;DHT22;11993;48.748;9.166;2023-07-08T13:12:01;32.10;31.70
23633;DHT22;11993;48.748;9.166;2023-07-08T13:14:28;32.50;31.30
23633;DHT22;11993;48.748;9.166;2023-07-08T13:16:54;32.60;30.70
23633;DHT22;11993;48.748;9.166;2023-07-08T13:19:20;32.40;30.90
23633;DHT22;11993;48.748;9.166;2023-07-08T13:21:46;32.20;31.00
23633;DHT22;11993;48.748;9.166;2023-07-08T13:24:12;32.60;30.30
23633;DHT22;11993;48.748;9.166;2023-07-08T13:26:38;32.80;30.00
23633;DHT22;11993;48.748;9.166;2023-07-08T13:29:11;32.30;29.80
23633;DHT22;11993;48.748;9.166;2023-07-08T13:31:38;32.40;30.10
23633;DHT22;11993;48.748;9.166;2023-07-08T13:34:09;33.20;29.30
23633;DHT22;11993;48.748;9.166;2023-07-08T13:36:39;33.80;29.20
23633;DHT22;11993;48.748;9.166;2023-07-08T13:39:09;34.00;28.30
23633;DHT22;11993;48.748;9.166;2023-07-08T13:41:43;33.50;27.70
23633;DHT22;11993;48.748;9.166;2023-07-08T13:44:09;33.00;28.00
23633;DHT22;11993;48.748;9.166;2023-07-08T13:46:53;32.90;28.40
23633;DHT22;11993;48.748;9.166;2023-07-08T13:49:28;32.90;27.90
23633;DHT22;11993;48.748;9.166;2023-07-08T13:54:40;32.80;29.10
23633;DHT22;11993;48.748;9.166;2023-07-08T13:57:12;33.00;29.30
23633;DHT22;11993;48.748;9.166;2023-07-08T13:59:38;32.60;29.20
23633;DHT22;11993;48.748;9.166;2023-07-08T14:02:30;32.80;29.80
23633;DHT22;11993;48.748;9.166;2023-07-08T14:04:57;32.20;30.30
23633;DHT22;11993;48.748;9.166;2023-07-08T14:07:27;32.00;30.70
23633;DHT22;11993;48.748;9.166;2023-07-08T14:09:54;32.50;30.00
23633;DHT22;11993;48.748;9.166;2023-07-08T14:12:20;32.70;29.50
23633;DHT22;11993;48.748;9.166;2023-07-08T14:14:46;32.40;30.60
23633;DHT22;11993;48.748;9.166;2023-07-08T14:17:15;32.20;30.90
23633;DHT22;11993;48.748;9.166;2023-07-08T14:19:42;32.10;30.80
23633;DHT22;11993;48.748;9.166;2023-07-08T14:24:40;32.40;31.50
23633;DHT22;11993;48.748;9.166;2023-07-08T14:27:09;32.50;31.40
23633;DHT22;11993;48.748;9.166;2023-07-08T14:29:38;32.40;31.20
23633;DHT22;11993;48.748;9.166;2023-07-08T14:32:04;31.60;31.60
23633;DHT22;11993;48.748;9.166;2023-07-08T14:34:30;31.10;32.10
23633;DHT22;11993;48.748;9.166;2023-07-08T14:36:58;31.00;32.30
23633;DHT22;11993;48.748;9.166;2023-07-08T14:39:24;31.30;31.60
23633;DHT22;11993;48.748;9.166;2023-07-08T14:41:50;31.40;31.40
23633;DHT22;11993;48.748;9.166;2023-07-08T14:46:45;31.00;32.00
23633;DHT22;11993;48.748;9.166;2023-07-08T14:49:19;30.90;32.40
23633;DHT22;11993;48.748;9.166;2023-07-08T14:51:45;30.80;32.40
23633;DHT22;11993;48.748;9.166;2023-07-08T14:54:11;31.00;32.50
23633;DHT22;11993;48.748;9.166;2023-07-08T14:56:37;30.80;32.60
23633;DHT22;11993;48.748;9.166;2023-07-08T14:59:02;31.00;32.50
23633;DHT22;11993;48.748;9.166;2023-07-08T15:01:28;31.10;32.30
23633;DHT22;11993;48.748;9.166;2023-07-08T15:03:56;30.80;32.90
23633;DHT22;11993;48.748;9.166;2023-07-08T15:06:22;30.70;32.80
23633;DHT22;11993;48.748;9.166;2023-07-08T15:08:47;30.60;33.30
23633;DHT22;11993;48.748;9.166;2023-07-08T15:11:13;30.70;33.30
23633;DHT22;11993;48.748;9.166;2023-07-08T15:13:40;31.10;32.70
23633;DHT22;11993;48.748;9.166;2023-07-08T15:16:16;31.30;32.00
23633;DHT22;11993;48.748;9.166;2023-07-08T15:18:42;31.60;31.50
23633;DHT22;11993;48.748;9.166;2023-07-08T15:21:13;31.50;31.30
23633;DHT22;11993;48.748;9.166;2023-07-08T15:23:40;31.20;31.80
23633;DHT22;11993;48.748;9.166;2023-07-08T15:26:11;31.30;31.80
23633;DHT22;11993;48.748;9.166;2023-07-08T15:28:46;31.40;31.70
23633;DHT22;11993;48.748;9.166;2023-07-08T15:31:20;31.90;31.80
23633;DHT22;11993;48.748;9.166;2023-07-08T15:33:46;32.40;30.80
23633;DHT22;11993;48.748;9.166;2023-07-08T15:36:12;32.50;30.80
23633;DHT22;11993;48.748;9.166;2023-07-08T15:38:39;32.70;30.30
23633;DHT22;11993;48.748;9.166;2023-07-08T15:43:44;32.30;30.50
23633;DHT22;11993;48.748;9.166;2023-07-08T15:46:10;32.20;30.50
23633;DHT22;11993;48.748;9.166;2023-07-08T15:48:35;31.60;31.10
23633;DHT22;11993;48.748;9.166;2023-07-08T15:51:01;31.70;31.00
23633;DHT22;11993;48.748;9.166;2023-07-08T15:53:26;31.60;31.10
23633;DHT22;11993;48.748;9.166;2023-07-08T15:55:52;31.90;30.70
23633;DHT22;11993;48.748;9.166;2023-07-08T15:58:29;31.80;30.90
23633;DHT22;11993;48.748;9.166;2023-07-08T16:00:58;31.50;31.10
23633;DHT22;11993;48.748;9.166;2023-07-08T16:03:26;31.70;31.00
23633;DHT22;11993;48.748;9.166;2023-07-08T16:05:53;31.70;31.20
23633;DHT22;11993;48.748;9.166;2023-07-08T16:08:19;31.90;31.10
23633;DHT22;11993;48.748;9.166;2023-07-08T16:10:52;32.00;30.70
23633;DHT22;11993;48.748;9.166;2023-07-08T16:13:23;31.90;30.80
23633;DHT22;11993;48.748;9.166;2023-07-08T16:15:49;31.80;31.10
23633;DHT22;11993;48.748;9.166;2023-07-08T16:18:16;31.30;31.50
23633;DHT22;11993;48.748;9.166;2023-07-08T16:20:41;31.50;31.30
23633;DHT22;11993;48.748;9.166;2023-07-08T16:23:07;31.60;31.50
23633;DHT22;11993;48.748;9.166;2023-07-08T16:25:44;31.40;31.60
23633;DHT22;11993;48.748;9.166;2023-07-08T16:31:12;31.30;31.40